Commodore Goodwill — C6NU8 — position and weather

sailwx.info

Track history (hours):
 
Tides and Currents Weather Stations Pressure Air Temp Water Temp Dewpoint Dewpoint Depression Visibility Wind Speed Wind Dir Waves Ship Positions

Commodore Goodwill

Operator: Condor Marine Services

Last reported at 2019-Sep-09 06:12 UTC. Time now 2019-Sep-21 00:28 UTC.
Position N 50°09' W 005°03'.
Warning: this ship's position is 11 days out of date.

Length 126 m; draft 4.7 m.

Type: Cargo ship. MMSI: 309536000.

Date/timePositionNaut miles runAvg speedWind from/ knotsBaromVisibWave heightAir tempDewpointWater temp
2019-Sep-09 06:12N 50°09' W 005°03'9 5.7
2019-Sep-09 04:33N 50°05' W 004°50'115.1
2019-Sep-09 04:30N 50°06' W 004°49'1214.1
2019-Sep-09 03:41N 50°05' W 004°31'716.2
2019-Sep-09 03:16N 50°07' W 004°20'516.8
2019-Sep-09 02:58N 50°07' W 004°13'1515.6
2019-Sep-09 02:00N 50°09' W 003°49'613.0
2019-Sep-09 01:30N 50°10' W 003°39'611.5
2019-Sep-09 01:00N 50°11' W 003°31'611.4
2019-Sep-09 00:31N 50°12' W 003°22'611.6
2019-Sep-09 00:00N 50°13' W 003°13'510.4
2019-Sep-08 23:30N 50°14' W 003°05'510.2
2019-Sep-08 23:01N 50°15' W 002°57'611.0
2019-Sep-08 22:30N 50°16' W 002°49'713.3
2019-Sep-08 22:00N 50°17' W 002°38'815.7
2019-Sep-08 21:29N 50°20' W 002°26'1414.7
2019-Sep-08 20:33N 50°22' W 002°05'214.8
2019-Sep-08 20:26N 50°23' W 002°03'614.4
2019-Sep-08 20:00N 50°25' W 001°53'2918.0
2019-Sep-08 18:24N 50°35' W 001°11'717.9
2019-Sep-08 18:01N 50°40' W 001°04'714.5
2019-Sep-08 17:30N 50°47' W 001°07'1 2.8
2019-Sep-08 17:00N 50°49' W 001°06'0 0.0
2019-Sep-08 16:31N 50°49' W 001°06'0 0.0
2019-Sep-08 16:00N 50°49' W 001°06'0 0.0
2019-Sep-08 15:31N 50°49' W 001°06'0 0.0
2019-Sep-08 15:00N 50°49' W 001°06'0 0.0
2019-Sep-08 14:30N 50°49' W 001°06'0 0.0
2019-Sep-08 14:01N 50°49' W 001°06'0 0.0
2019-Sep-08 13:30N 50°49' W 001°06'0 0.0
2019-Sep-08 13:00N 50°49' W 001°06'0 0.0
2019-Sep-08 12:30N 50°49' W 001°06'0 0.0
2019-Sep-08 12:01N 50°49' W 001°06'0 0.0
2019-Sep-08 11:31N 50°49' W 001°06'0 0.0
2019-Sep-08 11:00N 50°49' W 001°06'0 0.0
2019-Sep-08 10:31N 50°49' W 001°06'0 0.0
2019-Sep-08 10:00N 50°49' W 001°06'0 0.0
2019-Sep-08 09:30N 50°49' W 001°06'0 0.0
2019-Sep-08 09:00N 50°49' W 001°06'0 0.0
2019-Sep-08 08:31N 50°49' W 001°06'0 0.0
2019-Sep-08 08:00N 50°49' W 001°06'0 0.0
2019-Sep-08 07:30N 50°49' W 001°06'0 0.0
2019-Sep-08 07:00N 50°49' W 001°06'0 0.0
2019-Sep-08 06:30N 50°49' W 001°06'2 3.7
2019-Sep-08 06:00N 50°47' W 001°06'714.0
2019-Sep-08 05:31N 50°40' W 001°04'815.1
2019-Sep-08 05:00N 50°34' W 001°10'1015.2
2019-Sep-08 04:20N 50°25' W 001°19'6516.0
2019-Sep-08 00:15N 49°29' W 002°12'415.3
2019-Sep-08 00:00N 49°26' W 002°15'10 0.5
2019-Sep-07 04:35N 49°20' W 002°27'218.1
2019-Sep-07 04:29N 49°22' W 002°28'612.9
2019-Sep-07 04:00N 49°27' W 002°32'0 0.0
2019-Sep-07 03:30N 49°27' W 002°32'0 0.0
2019-Sep-07 03:00N 49°27' W 002°32'0 0.1
2019-Sep-07 02:31N 49°27' W 002°32'510.3
2019-Sep-07 02:00N 49°27' W 002°24'7915.4
2019-Sep-06 20:55N 50°30' W 001°11'818.5
2019-Sep-06 20:30N 50°37' W 001°06'714.8
2019-Sep-06 20:00N 50°45' W 001°05'4 8.4
2019-Sep-06 19:30N 50°49' W 001°06'0 0.0
2019-Sep-06 19:00N 50°49' W 001°06'0 0.0
2019-Sep-06 18:30N 50°49' W 001°06'0 0.0
2019-Sep-06 18:00N 50°49' W 001°06'0 0.0
2019-Sep-06 17:30N 50°49' W 001°06'0 0.0
2019-Sep-06 17:00N 50°49' W 001°06'0 0.0
2019-Sep-06 16:30N 50°49' W 001°06'0 0.0
2019-Sep-06 16:00N 50°49' W 001°06'2 3.3
2019-Sep-06 15:30N 50°47' W 001°06'713.9
2019-Sep-06 15:00N 50°40' W 001°03'918.3
2019-Sep-06 14:30N 50°33' W 001°11'7819.3
2019-Sep-06 10:26N 49°26' W 002°14'1318.2
2019-Sep-06 09:44N 49°13' W 002°19'11 2.7
2019-Sep-06 05:35N 49°22' W 002°29'117.3
2019-Sep-06 05:30N 49°23' W 002°29'4 8.4
2019-Sep-06 05:00N 49°27' W 002°32'0 0.0
2019-Sep-06 04:30N 49°27' W 002°32'0 0.0
2019-Sep-06 04:00N 49°27' W 002°32'4 7.6
2019-Sep-06 03:31N 49°26' W 002°26'5613.8
2019-Sep-05 23:29N 50°10' W 001°32'714.0
2019-Sep-05 23:00N 50°15' W 001°27'1913.8
2019-Sep-05 21:40N 50°31' W 001°11'214.1
2019-Sep-05 21:30N 50°33' W 001°09'714.1
2019-Sep-05 21:00N 50°38' W 001°02'611.9
2019-Sep-05 20:31N 50°44' W 001°04'5 9.4
2019-Sep-05 20:00N 50°49' W 001°07'1 1.3
2019-Sep-05 19:30N 50°49' W 001°06'0 0.0
2019-Sep-05 19:00N 50°49' W 001°06'0 0.0
2019-Sep-05 18:30N 50°49' W 001°06'0 0.0
2019-Sep-05 18:00N 50°49' W 001°06'0 0.0
2019-Sep-05 17:30N 50°49' W 001°06'0 0.0
2019-Sep-05 17:00N 50°49' W 001°06'0 0.0
2019-Sep-05 16:30N 50°49' W 001°06'0 0.0
2019-Sep-05 16:00N 50°49' W 001°06'2 4.8
2019-Sep-05 15:31N 50°46' W 001°06'714.0
2019-Sep-05 15:01N 50°39' W 001°05'917.5
2019-Sep-05 14:30N 50°32' W 001°13'1718.1
2019-Sep-05 13:33N 50°18' W 001°27'218.5
2019-Sep-05 13:27N 50°16' W 001°29'818.6
2019-Sep-05 13:00N 50°09' W 001°36'919.0
2019-Sep-05 12:30N 50°01' W 001°44'1019.3
2019-Sep-05 12:00N 49°53' W 001°53'1620.1
2019-Sep-05 11:13N 49°39' W 002°02'520.1
2019-Sep-05 10:58N 49°34' W 002°01'21 3.6
2019-Sep-05 05:14N 49°22' W 002°27'312.6
2019-Sep-05 05:01N 49°24' W 002°28'4 7.8
2019-Sep-05 04:30N 49°27' W 002°32'0 0.0
2019-Sep-05 04:00N 49°27' W 002°32'0 0.0
2019-Sep-05 03:30N 49°27' W 002°32'4 7.6
2019-Sep-05 03:01N 49°26' W 002°26'2513.8
2019-Sep-05 01:13N 49°46' W 002°03'314.3
2019-Sep-05 01:01N 49°48' W 002°00'714.4
2019-Sep-05 00:30N 49°54' W 001°54'714.1
2019-Sep-05 00:00N 49°60' W 001°47'713.8
2019-Sep-04 23:30N 50°05' W 001°40'713.8
2019-Sep-04 23:00N 50°09' W 001°32'714.5
2019-Sep-04 22:30N 50°15' W 001°24'914.4
2019-Sep-04 21:52N 50°22' W 001°17'514.5
2019-Sep-04 21:30N 50°27' W 001°12'714.7
2019-Sep-04 21:00N 50°33' W 001°06'815.2
2019-Sep-04 20:30N 50°40' W 001°01'613.2
2019-Sep-04 20:00N 50°46' W 001°05'3 6.0
2019-Sep-04 19:30N 50°49' W 001°06'0 0.0
2019-Sep-04 19:00N 50°49' W 001°06'0 0.0
2019-Sep-04 18:30N 50°49' W 001°06'0 0.0
2019-Sep-04 18:00N 50°49' W 001°06'0 0.0
2019-Sep-04 17:30N 50°49' W 001°06'0 0.0
2019-Sep-04 17:00N 50°49' W 001°06'0 0.0
2019-Sep-04 16:30N 50°49' W 001°06'0 0.0
2019-Sep-04 16:00N 50°49' W 001°06'2 4.5
2019-Sep-04 15:30N 50°47' W 001°06'714.0
2019-Sep-04 15:00N 50°40' W 001°05'816.3
2019-Sep-04 14:30N 50°33' W 001°11'917.4
2019-Sep-04 14:00N 50°26' W 001°20'917.9
2019-Sep-04 13:30N 50°18' W 001°27'918.6
2019-Sep-04 13:00N 50°10' W 001°34'1019.1
2019-Sep-04 12:30N 50°02' W 001°42'1019.6
2019-Sep-04 12:00N 49°54' W 001°50'2921.1
2019-Sep-04 10:39N 49°29' W 002°13'320.5
2019-Sep-04 10:30N 49°26' W 002°14'9 1.6
2019-Sep-04 04:36N 49°20' W 002°25'111.2
2019-Sep-04 04:30N 49°21' W 002°26'510.2
2019-Sep-04 04:00N 49°26' W 002°29'2 4.7
2019-Sep-04 03:30N 49°27' W 002°32'0 0.0
2019-Sep-04 03:00N 49°27' W 002°32'0 0.0
2019-Sep-04 02:30N 49°27' W 002°32'3 6.7
2019-Sep-04 02:00N 49°26' W 002°27'1318.1
2019-Sep-04 01:19N 49°33' W 002°12'716.3
2019-Sep-04 00:53N 49°39' W 002°06'715.5
2019-Sep-04 00:27N 49°45' W 002°03'614.0
2019-Sep-04 00:00N 49°50' W 001°57'714.2
2019-Sep-03 23:31N 49°56' W 001°51'714.2
2019-Sep-03 23:00N 50°03' W 001°46'713.9
2019-Sep-03 22:30N 50°08' W 001°38'714.2
2019-Sep-03 22:01N 50°13' W 001°31'814.9
2019-Sep-03 21:29N 50°19' W 001°23'715.4
2019-Sep-03 21:00N 50°25' W 001°17'815.6
2019-Sep-03 20:29N 50°32' W 001°09'816.0
2019-Sep-03 20:00N 50°38' W 001°02'612.8
2019-Sep-03 19:30N 50°44' W 001°05'4 8.9
2019-Sep-03 19:00N 50°49' W 001°06'0 0.0
2019-Sep-03 18:31N 50°49' W 001°06'0 0.0
2019-Sep-03 18:01N 50°49' W 001°06'0 0.0
2019-Sep-03 17:31N 50°49' W 001°06'0 0.0
2019-Sep-03 17:01N 50°49' W 001°06'0 0.0
2019-Sep-03 16:31N 50°49' W 001°06'0 0.0
2019-Sep-03 16:01N 50°49' W 001°06'0 0.0
2019-Sep-03 15:31N 50°49' W 001°06'2 4.7
2019-Sep-03 15:01N 50°46' W 001°06'713.4
2019-Sep-03 14:30N 50°40' W 001°04'816.0
2019-Sep-03 14:00N 50°33' W 001°12'917.2
2019-Sep-03 13:29N 50°26' W 001°20'1318.3
2019-Sep-03 12:46N 50°15' W 001°31'518.7
2019-Sep-03 12:30N 50°11' W 001°35'1019.1
2019-Sep-03 12:00N 50°02' W 001°43'1019.7
2019-Sep-03 11:29N 49°54' W 001°51'1021.5
2019-Sep-03 11:00N 49°45' W 002°01'1921.5
2019-Sep-03 10:08N 49°29' W 002°13'321.5
2019-Sep-03 10:00N 49°26' W 002°15'1320.4
2019-Sep-03 09:22N 49°13' W 002°20'816.4
2019-Sep-03 08:52N 49°10' W 002°08'1 2.9
2019-Sep-03 08:28N 49°11' W 002°07'0 0.0
2019-Sep-03 07:29N 49°11' W 002°07'0 0.0
2019-Sep-03 06:15N 49°11' W 002°07'1 1.9
2019-Sep-03 05:49N 49°10' W 002°08'1713.2
2019-Sep-03 04:33N 49°21' W 002°26'112.2
2019-Sep-03 04:29N 49°22' W 002°27'613.0
2019-Sep-03 04:01N 49°27' W 002°32'0 0.0
2019-Sep-03 03:30N 49°27' W 002°32'0 0.0
2019-Sep-03 03:01N 49°27' W 002°32'0 0.0
2019-Sep-03 02:31N 49°27' W 002°32'4 7.6
2019-Sep-03 02:00N 49°26' W 002°26'815.5
2019-Sep-03 01:30N 49°31' W 002°16'1114.3
2019-Sep-03 00:43N 49°40' W 002°06'715.4
2019-Sep-03 00:16N 49°46' W 002°01'414.9
2019-Sep-03 00:00N 49°49' W 001°58'714.2
2019-Sep-02 23:30N 49°55' W 001°51'713.7
2019-Sep-02 23:01N 49°60' W 001°44'714.0
2019-Sep-02 22:30N 50°06' W 001°38'714.0
2019-Sep-02 22:00N 50°12' W 001°32'713.7
2019-Sep-02 21:30N 50°17' W 001°25'714.1
2019-Sep-02 21:00N 50°23' W 001°19'1214.0
2019-Sep-02 20:08N 50°33' W 001°08'213.7
2019-Sep-02 19:59N 50°34' W 001°06'714.1
2019-Sep-02 19:29N 50°40' W 001°01'613.0
2019-Sep-02 19:00N 50°46' W 001°05'3 5.9
2019-Sep-02 18:30N 50°49' W 001°06'0 0.0
2019-Sep-02 18:00N 50°49' W 001°06'0 0.0
2019-Sep-02 17:30N 50°49' W 001°06'0 0.0
2019-Sep-02 17:00N 50°49' W 001°06'0 0.0
2019-Sep-02 16:30N 50°49' W 001°06'0 0.0
2019-Sep-02 16:00N 50°49' W 001°06'0 0.0
2019-Sep-02 15:30N 50°49' W 001°06'2 4.7
2019-Sep-02 15:00N 50°46' W 001°06'713.2
2019-Sep-02 14:31N 50°40' W 001°04'815.3
2019-Sep-02 13:58N 50°33' W 001°11'2113.0
2019-Sep-02 12:19N 50°16' W 001°31'515.0
2019-Sep-02 12:00N 50°11' W 001°34'816.3
2019-Sep-02 11:31N 50°04' W 001°40'816.7
2019-Sep-02 11:00N 49°57' W 001°47'815.8
2019-Sep-02 10:30N 49°51' W 001°55'2820.2
2019-Sep-02 09:08N 49°26' W 002°14'421.7
2019-Sep-02 08:57N 49°23' W 002°17'6 1.3
2019-Sep-02 04:00N 49°21' W 002°26'815.7
2019-Sep-02 03:30N 49°27' W 002°32'0 0.0
2019-Sep-02 03:00N 49°27' W 002°32'0 0.0
2019-Sep-02 02:30N 49°27' W 002°32'0 0.0
2019-Sep-02 02:00N 49°27' W 002°32'0 0.0
2019-Sep-02 01:30N 49°27' W 002°32'4 7.9
2019-Sep-02 01:00N 49°26' W 002°26'2610.6
2019-Sep-01 22:35N 49°46' W 002°01'111.7
2019-Sep-01 22:30N 49°47' W 001°59'510.6
2019-Sep-01 22:00N 49°51' W 001°54'510.9
2019-Sep-01 21:30N 49°55' W 001°49'612.3
2019-Sep-01 21:00N 49°60' W 001°43'714.6
2019-Sep-01 20:30N 50°06' W 001°37'815.4
2019-Sep-01 20:00N 50°12' W 001°30'815.9
2019-Sep-01 19:30N 50°19' W 001°23'1716.8
2019-Sep-01 18:28N 50°33' W 001°07'817.2
2019-Sep-01 18:00N 50°40' W 001°01'714.3
2019-Sep-01 17:30N 50°46' W 001°06'2 4.7
2019-Sep-01 17:00N 50°49' W 001°06'0 0.0
2019-Sep-01 16:30N 50°49' W 001°06'0 0.0
2019-Sep-01 16:00N 50°49' W 001°06'0 0.0
2019-Sep-01 15:30N 50°49' W 001°06'0 0.0
2019-Sep-01 15:00N 50°49' W 001°06'0 0.0
2019-Sep-01 14:30N 50°49' W 001°06'0 0.0
2019-Sep-01 14:00N 50°49' W 001°06'0 0.0
2019-Sep-01 13:30N 50°49' W 001°06'0 0.0
2019-Sep-01 13:00N 50°49' W 001°06'0 0.0
2019-Sep-01 12:30N 50°49' W 001°06'0 0.0
2019-Sep-01 12:00N 50°49' W 001°06'0 0.0
2019-Sep-01 11:30N 50°49' W 001°06'0 0.0
2019-Sep-01 11:00N 50°49' W 001°06'0 0.0
2019-Sep-01 10:30N 50°49' W 001°06'0 0.0
2019-Sep-01 10:00N 50°49' W 001°06'0 0.0
2019-Sep-01 09:30N 50°49' W 001°06'0 0.0
2019-Sep-01 09:00N 50°49' W 001°06'0 0.0
2019-Sep-01 08:30N 50°49' W 001°06'0 0.0
2019-Sep-01 08:00N 50°49' W 001°06'0 0.0
2019-Sep-01 07:30N 50°49' W 001°06'2 3.2
2019-Sep-01 07:01N 50°47' W 001°06'714.2
2019-Sep-01 06:31N 50°41' W 001°01'713.9
2019-Sep-01 06:01N 50°35' W 001°05'713.1
2019-Sep-01 05:30N 50°30' W 001°12'2215.0
2019-Sep-01 04:02N 50°12' W 001°32'114.9
2019-Sep-01 03:59N 50°11' W 001°33'714.1
2019-Sep-01 03:30N 50°06' W 001°39'713.9
2019-Sep-01 03:00N 50°00' W 001°45'713.8
2019-Sep-01 02:30N 49°55' W 001°51'714.0
2019-Sep-01 02:00N 49°49' W 001°58'2312.8
2019-Sep-01 00:15N 49°28' W 002°12'416.1
2019-Aug-31 23:59N 49°25' W 002°15'33 6.8
2019-Aug-31 19:10N 48°54' W 001°58'12 1.1
2019-Aug-31 08:10N 49°05' W 002°01'6 9.1
2019-Aug-31 07:30N 49°10' W 002°07'1 0.7
2019-Aug-31 06:11N 49°11' W 002°07'0 0.0
2019-Aug-31 05:37N 49°11' W 002°07'0 0.0
2019-Aug-31 05:02N 49°11' W 002°07'0 0.3
2019-Aug-31 04:51N 49°11' W 002°07'616.4
2019-Aug-31 04:27N 49°10' W 002°17'714.4
2019-Aug-31 03:59N 49°16' W 002°22'714.0
2019-Aug-31 03:30N 49°22' W 002°27'612.8
2019-Aug-31 03:00N 49°27' W 002°32'0 0.0
2019-Aug-31 02:30N 49°27' W 002°32'0 0.0
2019-Aug-31 02:00N 49°27' W 002°32'4 8.0
2019-Aug-31 01:30N 49°26' W 002°26'713.7
2019-Aug-31 01:01N 49°30' W 002°18'713.9
2019-Aug-31 00:31N 49°35' W 002°09'816.4
2019-Aug-31 00:00N 49°42' W 002°05'714.6
2019-Aug-30 23:30N 49°49' W 001°60'715.0
2019-Aug-30 23:00N 49°55' W 001°52'917.2
2019-Aug-30 22:30N 50°02' W 001°45'816.5
2019-Aug-30 22:01N 50°08' W 001°37'816.0
2019-Aug-30 21:31N 50°15' W 001°31'815.4
2019-Aug-30 21:00N 50°22' W 001°24'714.8
2019-Aug-30 20:30N 50°28' W 001°17'714.1
2019-Aug-30 20:01N 50°34' W 001°11'713.9
2019-Aug-30 19:30N 50°39' W 001°05'714.2
2019-Aug-30 19:00N 50°46' W 001°06'2 4.8
2019-Aug-30 18:30N 50°49' W 001°06'0 0.0
2019-Aug-30 18:00N 50°49' W 001°06'0 0.0
2019-Aug-30 17:30N 50°49' W 001°06'0 0.0
2019-Aug-30 17:00N 50°49' W 001°06'0 0.0
2019-Aug-30 16:30N 50°49' W 001°06'0 0.0
2019-Aug-30 16:00N 50°49' W 001°06'0 0.0
2019-Aug-30 15:30N 50°49' W 001°06'2 4.8
2019-Aug-30 15:00N 50°46' W 001°06'713.4
2019-Aug-30 14:30N 50°40' W 001°04'714.4
2019-Aug-30 14:00N 50°34' W 001°11'510.8
2019-Aug-30 13:30N 50°29' W 001°16'712.2
2019-Aug-30 12:56N 50°24' W 001°22'713.0
2019-Aug-30 12:23N 50°18' W 001°28'613.7
2019-Aug-30 11:55N 50°12' W 001°33'712.2
2019-Aug-30 11:22N 50°06' W 001°39'513.5
2019-Aug-30 11:00N 50°03' W 001°44'612.7
2019-Aug-30 10:30N 49°57' W 001°48'714.5
2019-Aug-30 10:00N 49°51' W 001°54'3616.8
2019-Aug-30 07:51N 49°19' W 002°19'718.2
2019-Aug-30 07:29N 49°12' W 002°19'816.8
2019-Aug-30 07:00N 49°10' W 002°07'0 0.7
2019-Aug-30 06:30N 49°11' W 002°07'  
Track history (hours):
 
Tides and Currents Weather Stations Pressure Air Temp Water Temp Dewpoint Dewpoint Depression Visibility Wind Speed Wind Dir Waves Ship Positions

Commodore Goodwill

Operator: Condor Marine Services

Last reported at 2019-Sep-09 06:12 UTC. Time now 2019-Sep-21 00:28 UTC.
Position N 50°09' W 005°03'.
Warning: this ship's position is 11 days out of date.

Length 126 m; draft 4.7 m.

Type: Cargo ship. MMSI: 309536000.

Date/timePositionNaut miles runAvg speedWind from/ knotsBaromVisibWave heightAir tempDewpointWater temp
2019-Sep-09 06:12N 50°09' W 005°03'9 5.7
2019-Sep-09 04:33N 50°05' W 004°50'115.1
2019-Sep-09 04:30N 50°06' W 004°49'1214.1
2019-Sep-09 03:41N 50°05' W 004°31'716.2
2019-Sep-09 03:16N 50°07' W 004°20'516.8
2019-Sep-09 02:58N 50°07' W 004°13'1515.6
2019-Sep-09 02:00N 50°09' W 003°49'613.0
2019-Sep-09 01:30N 50°10' W 003°39'611.5
2019-Sep-09 01:00N 50°11' W 003°31'611.4
2019-Sep-09 00:31N 50°12' W 003°22'611.6
2019-Sep-09 00:00N 50°13' W 003°13'510.4
2019-Sep-08 23:30N 50°14' W 003°05'510.2
2019-Sep-08 23:01N 50°15' W 002°57'611.0
2019-Sep-08 22:30N 50°16' W 002°49'713.3
2019-Sep-08 22:00N 50°17' W 002°38'815.7
2019-Sep-08 21:29N 50°20' W 002°26'1414.7
2019-Sep-08 20:33N 50°22' W 002°05'214.8
2019-Sep-08 20:26N 50°23' W 002°03'614.4
2019-Sep-08 20:00N 50°25' W 001°53'2918.0
2019-Sep-08 18:24N 50°35' W 001°11'717.9
2019-Sep-08 18:01N 50°40' W 001°04'714.5
2019-Sep-08 17:30N 50°47' W 001°07'1 2.8
2019-Sep-08 17:00N 50°49' W 001°06'0 0.0
2019-Sep-08 16:31N 50°49' W 001°06'0 0.0
2019-Sep-08 16:00N 50°49' W 001°06'0 0.0
2019-Sep-08 15:31N 50°49' W 001°06'0 0.0
2019-Sep-08 15:00N 50°49' W 001°06'0 0.0
2019-Sep-08 14:30N 50°49' W 001°06'0 0.0
2019-Sep-08 14:01N 50°49' W 001°06'0 0.0
2019-Sep-08 13:30N 50°49' W 001°06'0 0.0
2019-Sep-08 13:00N 50°49' W 001°06'0 0.0
2019-Sep-08 12:30N 50°49' W 001°06'0 0.0
2019-Sep-08 12:01N 50°49' W 001°06'0 0.0
2019-Sep-08 11:31N 50°49' W 001°06'0 0.0
2019-Sep-08 11:00N 50°49' W 001°06'0 0.0
2019-Sep-08 10:31N 50°49' W 001°06'0 0.0
2019-Sep-08 10:00N 50°49' W 001°06'0 0.0
2019-Sep-08 09:30N 50°49' W 001°06'0 0.0
2019-Sep-08 09:00N 50°49' W 001°06'0 0.0
2019-Sep-08 08:31N 50°49' W 001°06'0 0.0
2019-Sep-08 08:00N 50°49' W 001°06'0 0.0
2019-Sep-08 07:30N 50°49' W 001°06'0 0.0
2019-Sep-08 07:00N 50°49' W 001°06'0 0.0
2019-Sep-08 06:30N 50°49' W 001°06'2 3.7
2019-Sep-08 06:00N 50°47' W 001°06'714.0
2019-Sep-08 05:31N 50°40' W 001°04'815.1
2019-Sep-08 05:00N 50°34' W 001°10'1015.2
2019-Sep-08 04:20N 50°25' W 001°19'6516.0
2019-Sep-08 00:15N 49°29' W 002°12'415.3
2019-Sep-08 00:00N 49°26' W 002°15'10 0.5
2019-Sep-07 04:35N 49°20' W 002°27'218.1
2019-Sep-07 04:29N 49°22' W 002°28'612.9
2019-Sep-07 04:00N 49°27' W 002°32'0 0.0
2019-Sep-07 03:30N 49°27' W 002°32'0 0.0
2019-Sep-07 03:00N 49°27' W 002°32'0 0.1
2019-Sep-07 02:31N 49°27' W 002°32'510.3
2019-Sep-07 02:00N 49°27' W 002°24'7915.4
2019-Sep-06 20:55N 50°30' W 001°11'818.5
2019-Sep-06 20:30N 50°37' W 001°06'714.8
2019-Sep-06 20:00N 50°45' W 001°05'4 8.4
2019-Sep-06 19:30N 50°49' W 001°06'0 0.0
2019-Sep-06 19:00N 50°49' W 001°06'0 0.0
2019-Sep-06 18:30N 50°49' W 001°06'0 0.0
2019-Sep-06 18:00N 50°49' W 001°06'0 0.0
2019-Sep-06 17:30N 50°49' W 001°06'0 0.0
2019-Sep-06 17:00N 50°49' W 001°06'0 0.0
2019-Sep-06 16:30N 50°49' W 001°06'0 0.0
2019-Sep-06 16:00N 50°49' W 001°06'2 3.3
2019-Sep-06 15:30N 50°47' W 001°06'713.9
2019-Sep-06 15:00N 50°40' W 001°03'918.3
2019-Sep-06 14:30N 50°33' W 001°11'7819.3
2019-Sep-06 10:26N 49°26' W 002°14'1318.2
2019-Sep-06 09:44N 49°13' W 002°19'11 2.7
2019-Sep-06 05:35N 49°22' W 002°29'117.3
2019-Sep-06 05:30N 49°23' W 002°29'4 8.4
2019-Sep-06 05:00N 49°27' W 002°32'0 0.0
2019-Sep-06 04:30N 49°27' W 002°32'0 0.0
2019-Sep-06 04:00N 49°27' W 002°32'4 7.6
2019-Sep-06 03:31N 49°26' W 002°26'5613.8
2019-Sep-05 23:29N 50°10' W 001°32'714.0
2019-Sep-05 23:00N 50°15' W 001°27'1913.8
2019-Sep-05 21:40N 50°31' W 001°11'214.1
2019-Sep-05 21:30N 50°33' W 001°09'714.1
2019-Sep-05 21:00N 50°38' W 001°02'611.9
2019-Sep-05 20:31N 50°44' W 001°04'5 9.4
2019-Sep-05 20:00N 50°49' W 001°07'1 1.3
2019-Sep-05 19:30N 50°49' W 001°06'0 0.0
2019-Sep-05 19:00N 50°49' W 001°06'0 0.0
2019-Sep-05 18:30N 50°49' W 001°06'0 0.0
2019-Sep-05 18:00N 50°49' W 001°06'0 0.0
2019-Sep-05 17:30N 50°49' W 001°06'0 0.0
2019-Sep-05 17:00N 50°49' W 001°06'0 0.0
2019-Sep-05 16:30N 50°49' W 001°06'0 0.0
2019-Sep-05 16:00N 50°49' W 001°06'2 4.8
2019-Sep-05 15:31N 50°46' W 001°06'714.0
2019-Sep-05 15:01N 50°39' W 001°05'917.5
2019-Sep-05 14:30N 50°32' W 001°13'1718.1
2019-Sep-05 13:33N 50°18' W 001°27'218.5
2019-Sep-05 13:27N 50°16' W 001°29'818.6
2019-Sep-05 13:00N 50°09' W 001°36'919.0
2019-Sep-05 12:30N 50°01' W 001°44'1019.3
2019-Sep-05 12:00N 49°53' W 001°53'1620.1
2019-Sep-05 11:13N 49°39' W 002°02'520.1
2019-Sep-05 10:58N 49°34' W 002°01'21 3.6
2019-Sep-05 05:14N 49°22' W 002°27'312.6
2019-Sep-05 05:01N 49°24' W 002°28'4 7.8
2019-Sep-05 04:30N 49°27' W 002°32'0 0.0
2019-Sep-05 04:00N 49°27' W 002°32'0 0.0
2019-Sep-05 03:30N 49°27' W 002°32'4 7.6
2019-Sep-05 03:01N 49°26' W 002°26'2513.8
2019-Sep-05 01:13N 49°46' W 002°03'314.3
2019-Sep-05 01:01N 49°48' W 002°00'714.4
2019-Sep-05 00:30N 49°54' W 001°54'714.1
2019-Sep-05 00:00N 49°60' W 001°47'713.8
2019-Sep-04 23:30N 50°05' W 001°40'713.8
2019-Sep-04 23:00N 50°09' W 001°32'714.5
2019-Sep-04 22:30N 50°15' W 001°24'914.4
2019-Sep-04 21:52N 50°22' W 001°17'514.5
2019-Sep-04 21:30N 50°27' W 001°12'714.7
2019-Sep-04 21:00N 50°33' W 001°06'815.2
2019-Sep-04 20:30N 50°40' W 001°01'613.2
2019-Sep-04 20:00N 50°46' W 001°05'3 6.0
2019-Sep-04 19:30N 50°49' W 001°06'0 0.0
2019-Sep-04 19:00N 50°49' W 001°06'0 0.0
2019-Sep-04 18:30N 50°49' W 001°06'0 0.0
2019-Sep-04 18:00N 50°49' W 001°06'0 0.0
2019-Sep-04 17:30N 50°49' W 001°06'0 0.0
2019-Sep-04 17:00N 50°49' W 001°06'0 0.0
2019-Sep-04 16:30N 50°49' W 001°06'0 0.0
2019-Sep-04 16:00N 50°49' W 001°06'2 4.5
2019-Sep-04 15:30N 50°47' W 001°06'714.0
2019-Sep-04 15:00N 50°40' W 001°05'816.3
2019-Sep-04 14:30N 50°33' W 001°11'917.4
2019-Sep-04 14:00N 50°26' W 001°20'917.9
2019-Sep-04 13:30N 50°18' W 001°27'918.6
2019-Sep-04 13:00N 50°10' W 001°34'1019.1
2019-Sep-04 12:30N 50°02' W 001°42'1019.6
2019-Sep-04 12:00N 49°54' W 001°50'2921.1
2019-Sep-04 10:39N 49°29' W 002°13'320.5
2019-Sep-04 10:30N 49°26' W 002°14'9 1.6
2019-Sep-04 04:36N 49°20' W 002°25'111.2
2019-Sep-04 04:30N 49°21' W 002°26'510.2
2019-Sep-04 04:00N 49°26' W 002°29'2 4.7
2019-Sep-04 03:30N 49°27' W 002°32'0 0.0
2019-Sep-04 03:00N 49°27' W 002°32'0 0.0
2019-Sep-04 02:30N 49°27' W 002°32'3 6.7
2019-Sep-04 02:00N 49°26' W 002°27'1318.1
2019-Sep-04 01:19N 49°33' W 002°12'716.3
2019-Sep-04 00:53N 49°39' W 002°06'715.5
2019-Sep-04 00:27N 49°45' W 002°03'614.0
2019-Sep-04 00:00N 49°50' W 001°57'714.2
2019-Sep-03 23:31N 49°56' W 001°51'714.2
2019-Sep-03 23:00N 50°03' W 001°46'713.9
2019-Sep-03 22:30N 50°08' W 001°38'714.2
2019-Sep-03 22:01N 50°13' W 001°31'814.9
2019-Sep-03 21:29N 50°19' W 001°23'715.4
2019-Sep-03 21:00N 50°25' W 001°17'815.6
2019-Sep-03 20:29N 50°32' W 001°09'816.0
2019-Sep-03 20:00N 50°38' W 001°02'612.8
2019-Sep-03 19:30N 50°44' W 001°05'4 8.9
2019-Sep-03 19:00N 50°49' W 001°06'0 0.0
2019-Sep-03 18:31N 50°49' W 001°06'0 0.0
2019-Sep-03 18:01N 50°49' W 001°06'0 0.0
2019-Sep-03 17:31N 50°49' W 001°06'0 0.0
2019-Sep-03 17:01N 50°49' W 001°06'0 0.0
2019-Sep-03 16:31N 50°49' W 001°06'0 0.0
2019-Sep-03 16:01N 50°49' W 001°06'0 0.0
2019-Sep-03 15:31N 50°49' W 001°06'2 4.7
2019-Sep-03 15:01N 50°46' W 001°06'713.4
2019-Sep-03 14:30N 50°40' W 001°04'816.0
2019-Sep-03 14:00N 50°33' W 001°12'917.2
2019-Sep-03 13:29N 50°26' W 001°20'1318.3
2019-Sep-03 12:46N 50°15' W 001°31'518.7
2019-Sep-03 12:30N 50°11' W 001°35'1019.1
2019-Sep-03 12:00N 50°02' W 001°43'1019.7
2019-Sep-03 11:29N 49°54' W 001°51'1021.5
2019-Sep-03 11:00N 49°45' W 002°01'1921.5
2019-Sep-03 10:08N 49°29' W 002°13'321.5
2019-Sep-03 10:00N 49°26' W 002°15'1320.4
2019-Sep-03 09:22N 49°13' W 002°20'816.4
2019-Sep-03 08:52N 49°10' W 002°08'1 2.9
2019-Sep-03 08:28N 49°11' W 002°07'0 0.0
2019-Sep-03 07:29N 49°11' W 002°07'0 0.0
2019-Sep-03 06:15N 49°11' W 002°07'1 1.9
2019-Sep-03 05:49N 49°10' W 002°08'1713.2
2019-Sep-03 04:33N 49°21' W 002°26'112.2
2019-Sep-03 04:29N 49°22' W 002°27'613.0
2019-Sep-03 04:01N 49°27' W 002°32'0 0.0
2019-Sep-03 03:30N 49°27' W 002°32'0 0.0
2019-Sep-03 03:01N 49°27' W 002°32'0 0.0
2019-Sep-03 02:31N 49°27' W 002°32'4 7.6
2019-Sep-03 02:00N 49°26' W 002°26'815.5
2019-Sep-03 01:30N 49°31' W 002°16'1114.3
2019-Sep-03 00:43N 49°40' W 002°06'715.4
2019-Sep-03 00:16N 49°46' W 002°01'414.9
2019-Sep-03 00:00N 49°49' W 001°58'714.2
2019-Sep-02 23:30N 49°55' W 001°51'713.7
2019-Sep-02 23:01N 49°60' W 001°44'714.0
2019-Sep-02 22:30N 50°06' W 001°38'714.0
2019-Sep-02 22:00N 50°12' W 001°32'713.7
2019-Sep-02 21:30N 50°17' W 001°25'714.1
2019-Sep-02 21:00N 50°23' W 001°19'1214.0
2019-Sep-02 20:08N 50°33' W 001°08'213.7
2019-Sep-02 19:59N 50°34' W 001°06'714.1
2019-Sep-02 19:29N 50°40' W 001°01'613.0
2019-Sep-02 19:00N 50°46' W 001°05'3 5.9
2019-Sep-02 18:30N 50°49' W 001°06'0 0.0
2019-Sep-02 18:00N 50°49' W 001°06'0 0.0
2019-Sep-02 17:30N 50°49' W 001°06'0 0.0
2019-Sep-02 17:00N 50°49' W 001°06'0 0.0
2019-Sep-02 16:30N 50°49' W 001°06'0 0.0
2019-Sep-02 16:00N 50°49' W 001°06'0 0.0
2019-Sep-02 15:30N 50°49' W 001°06'2 4.7
2019-Sep-02 15:00N 50°46' W 001°06'713.2
2019-Sep-02 14:31N 50°40' W 001°04'815.3
2019-Sep-02 13:58N 50°33' W 001°11'2113.0
2019-Sep-02 12:19N 50°16' W 001°31'515.0
2019-Sep-02 12:00N 50°11' W 001°34'816.3
2019-Sep-02 11:31N 50°04' W 001°40'816.7
2019-Sep-02 11:00N 49°57' W 001°47'815.8
2019-Sep-02 10:30N 49°51' W 001°55'2820.2
2019-Sep-02 09:08N 49°26' W 002°14'421.7
2019-Sep-02 08:57N 49°23' W 002°17'6 1.3
2019-Sep-02 04:00N 49°21' W 002°26'815.7
2019-Sep-02 03:30N 49°27' W 002°32'0 0.0
2019-Sep-02 03:00N 49°27' W 002°32'0 0.0
2019-Sep-02 02:30N 49°27' W 002°32'0 0.0
2019-Sep-02 02:00N 49°27' W 002°32'0 0.0
2019-Sep-02 01:30N 49°27' W 002°32'4 7.9
2019-Sep-02 01:00N 49°26' W 002°26'2610.6
2019-Sep-01 22:35N 49°46' W 002°01'111.7
2019-Sep-01 22:30N 49°47' W 001°59'510.6
2019-Sep-01 22:00N 49°51' W 001°54'510.9
2019-Sep-01 21:30N 49°55' W 001°49'612.3
2019-Sep-01 21:00N 49°60' W 001°43'714.6
2019-Sep-01 20:30N 50°06' W 001°37'815.4
2019-Sep-01 20:00N 50°12' W 001°30'815.9
2019-Sep-01 19:30N 50°19' W 001°23'1716.8
2019-Sep-01 18:28N 50°33' W 001°07'817.2
2019-Sep-01 18:00N 50°40' W 001°01'714.3
2019-Sep-01 17:30N 50°46' W 001°06'2 4.7
2019-Sep-01 17:00N 50°49' W 001°06'0 0.0
2019-Sep-01 16:30N 50°49' W 001°06'0 0.0
2019-Sep-01 16:00N 50°49' W 001°06'0 0.0
2019-Sep-01 15:30N 50°49' W 001°06'0 0.0
2019-Sep-01 15:00N 50°49' W 001°06'0 0.0
2019-Sep-01 14:30N 50°49' W 001°06'0 0.0
2019-Sep-01 14:00N 50°49' W 001°06'0 0.0
2019-Sep-01 13:30N 50°49' W 001°06'0 0.0
2019-Sep-01 13:00N 50°49' W 001°06'0 0.0
2019-Sep-01 12:30N 50°49' W 001°06'0 0.0
2019-Sep-01 12:00N 50°49' W 001°06'0 0.0
2019-Sep-01 11:30N 50°49' W 001°06'0 0.0
2019-Sep-01 11:00N 50°49' W 001°06'0 0.0
2019-Sep-01 10:30N 50°49' W 001°06'0 0.0
2019-Sep-01 10:00N 50°49' W 001°06'0 0.0
2019-Sep-01 09:30N 50°49' W 001°06'0 0.0
2019-Sep-01 09:00N 50°49' W 001°06'0 0.0
2019-Sep-01 08:30N 50°49' W 001°06'0 0.0
2019-Sep-01 08:00N 50°49' W 001°06'0 0.0
2019-Sep-01 07:30N 50°49' W 001°06'2 3.2
2019-Sep-01 07:01N 50°47' W 001°06'714.2
2019-Sep-01 06:31N 50°41' W 001°01'713.9
2019-Sep-01 06:01N 50°35' W 001°05'713.1
2019-Sep-01 05:30N 50°30' W 001°12'2215.0
2019-Sep-01 04:02N 50°12' W 001°32'114.9
2019-Sep-01 03:59N 50°11' W 001°33'714.1
2019-Sep-01 03:30N 50°06' W 001°39'713.9
2019-Sep-01 03:00N 50°00' W 001°45'713.8
2019-Sep-01 02:30N 49°55' W 001°51'714.0
2019-Sep-01 02:00N 49°49' W 001°58'2312.8
2019-Sep-01 00:15N 49°28' W 002°12'416.1
2019-Aug-31 23:59N 49°25' W 002°15'33 6.8
2019-Aug-31 19:10N 48°54' W 001°58'12 1.1
2019-Aug-31 08:10N 49°05' W 002°01'6 9.1
2019-Aug-31 07:30N 49°10' W 002°07'1 0.7
2019-Aug-31 06:11N 49°11' W 002°07'0 0.0
2019-Aug-31 05:37N 49°11' W 002°07'0 0.0
2019-Aug-31 05:02N 49°11' W 002°07'0 0.3
2019-Aug-31 04:51N 49°11' W 002°07'616.4
2019-Aug-31 04:27N 49°10' W 002°17'714.4
2019-Aug-31 03:59N 49°16' W 002°22'714.0
2019-Aug-31 03:30N 49°22' W 002°27'612.8
2019-Aug-31 03:00N 49°27' W 002°32'0 0.0
2019-Aug-31 02:30N 49°27' W 002°32'0 0.0
2019-Aug-31 02:00N 49°27' W 002°32'4 8.0
2019-Aug-31 01:30N 49°26' W 002°26'713.7
2019-Aug-31 01:01N 49°30' W 002°18'713.9
2019-Aug-31 00:31N 49°35' W 002°09'816.4
2019-Aug-31 00:00N 49°42' W 002°05'714.6
2019-Aug-30 23:30N 49°49' W 001°60'715.0
2019-Aug-30 23:00N 49°55' W 001°52'917.2
2019-Aug-30 22:30N 50°02' W 001°45'816.5
2019-Aug-30 22:01N 50°08' W 001°37'816.0
2019-Aug-30 21:31N 50°15' W 001°31'815.4
2019-Aug-30 21:00N 50°22' W 001°24'714.8
2019-Aug-30 20:30N 50°28' W 001°17'714.1
2019-Aug-30 20:01N 50°34' W 001°11'713.9
2019-Aug-30 19:30N 50°39' W 001°05'714.2
2019-Aug-30 19:00N 50°46' W 001°06'2 4.8
2019-Aug-30 18:30N 50°49' W 001°06'0 0.0
2019-Aug-30 18:00N 50°49' W 001°06'0 0.0
2019-Aug-30 17:30N 50°49' W 001°06'0 0.0
2019-Aug-30 17:00N 50°49' W 001°06'0 0.0
2019-Aug-30 16:30N 50°49' W 001°06'0 0.0
2019-Aug-30 16:00N 50°49' W 001°06'0 0.0
2019-Aug-30 15:30N 50°49' W 001°06'2 4.8
2019-Aug-30 15:00N 50°46' W 001°06'713.4
2019-Aug-30 14:30N 50°40' W 001°04'714.4
2019-Aug-30 14:00N 50°34' W 001°11'510.8
2019-Aug-30 13:30N 50°29' W 001°16'712.2
2019-Aug-30 12:56N 50°24' W 001°22'713.0
2019-Aug-30 12:23N 50°18' W 001°28'613.7
2019-Aug-30 11:55N 50°12' W 001°33'712.2
2019-Aug-30 11:22N 50°06' W 001°39'513.5
2019-Aug-30 11:00N 50°03' W 001°44'612.7
2019-Aug-30 10:30N 49°57' W 001°48'714.5
2019-Aug-30 10:00N 49°51' W 001°54'3616.8
2019-Aug-30 07:51N 49°19' W 002°19'718.2
2019-Aug-30 07:29N 49°12' W 002°19'816.8
2019-Aug-30 07:00N 49°10' W 002°07'0 0.7
2019-Aug-30 06:30N 49°11' W 002°07'  

Dump ship's entire track history